sensor_id;sensor_type;location;lat;lon;timestamp;temperature;humidity
41427;DHT22;27171;51.812;19.514;2023-02-28T00:02:27;-1.60;99.90
41427;DHT22;27171;51.812;19.514;2023-02-28T00:05:29;-1.50;99.90
41427;DHT22;27171;51.812;19.514;2023-02-28T00:08:30;-1.50;99.90
41427;DHT22;27171;51.812;19.514;2023-02-28T00:11:31;-1.50;99.90
41427;DHT22;27171;51.812;19.514;2023-02-28T00:14:32;-1.40;99.90
41427;DHT22;27171;51.812;19.514;2023-02-28T00:17:33;-1.40;99.90
41427;DHT22;27171;51.812;19.514;2023-02-28T00:20:34;-1.40;99.90
41427;DHT22;27171;51.812;19.514;2023-02-28T00:23:36;-1.40;99.90
41427;DHT22;27171;51.812;19.514;2023-02-28T00:26:37;-1.40;99.90
41427;DHT22;27171;51.812;19.514;2023-02-28T00:29:38;-1.40;99.90
41427;DHT22;27171;51.812;19.514;2023-02-28T00:32:40;-1.40;99.90
41427;DHT22;27171;51.812;19.514;2023-02-28T00:35:41;-1.30;99.90
41427;DHT22;27171;51.812;19.514;2023-02-28T00:38:43;-1.30;99.90
41427;DHT22;27171;51.812;19.514;2023-02-28T00:41:45;-1.30;99.90
41427;DHT22;27171;51.812;19.514;2023-02-28T00:44:45;-1.30;99.90
41427;DHT22;27171;51.812;19.514;2023-02-28T00:47:46;-1.30;99.90
41427;DHT22;27171;51.812;19.514;2023-02-28T00:50:48;-1.30;99.90
41427;DHT22;27171;51.812;19.514;2023-02-28T00:53:49;-1.30;99.90
41427;DHT22;27171;51.812;19.514;2023-02-28T00:56:51;-1.30;99.90
41427;DHT22;27171;51.812;19.514;2023-02-28T00:59:52;-1.40;99.90
41427;DHT22;27171;51.812;19.514;2023-02-28T01:02:53;-1.40;99.90
41427;DHT22;27171;51.812;19.514;2023-02-28T01:05:54;-1.40;99.90
41427;DHT22;27171;51.812;19.514;2023-02-28T01:08:55;-1.50;99.90
41427;DHT22;27171;51.812;19.514;2023-02-28T01:11:57;-1.50;99.90
41427;DHT22;27171;51.812;19.514;2023-02-28T01:14:59;-1.50;99.90
41427;DHT22;27171;51.812;19.514;2023-02-28T01:18:00;-1.60;99.90
41427;DHT22;27171;51.812;19.514;2023-02-28T01:21:10;-1.60;99.90
41427;DHT22;27171;51.812;19.514;2023-02-28T01:24:12;-1.70;99.90
41427;DHT22;27171;51.812;19.514;2023-02-28T01:27:13;-1.80;99.90
41427;DHT22;27171;51.812;19.514;2023-02-28T01:30:14;-1.80;99.90
41427;DHT22;27171;51.812;19.514;2023-02-28T01:33:16;-1.80;99.90
41427;DHT22;27171;51.812;19.514;2023-02-28T01:36:19;-1.90;99.90
41427;DHT22;27171;51.812;19.514;2023-02-28T01:39:21;-2.00;99.90
41427;DHT22;27171;51.812;19.514;2023-02-28T01:42:22;-2.00;99.90
41427;DHT22;27171;51.812;19.514;2023-02-28T01:45:27;-2.10;99.90
41427;DHT22;27171;51.812;19.514;2023-02-28T01:48:32;-2.10;99.90
41427;DHT22;27171;51.812;19.514;2023-02-28T01:51:45;-2.20;99.90
41427;DHT22;27171;51.812;19.514;2023-02-28T01:54:52;-2.30;99.90
41427;DHT22;27171;51.812;19.514;2023-02-28T01:57:57;-2.40;99.90
41427;DHT22;27171;51.812;19.514;2023-02-28T02:00:59;-2.40;99.90
41427;DHT22;27171;51.812;19.514;2023-02-28T02:04:02;-2.50;99.90
41427;DHT22;27171;51.812;19.514;2023-02-28T02:07:04;-2.60;99.90
41427;DHT22;27171;51.812;19.514;2023-02-28T02:10:12;-2.70;99.90
41427;DHT22;27171;51.812;19.514;2023-02-28T02:37:11;-3.40;99.90
41427;DHT22;27171;51.812;19.514;2023-02-28T02:40:22;-3.50;99.90
41427;DHT22;27171;51.812;19.514;2023-02-28T02:46:57;-3.60;99.90
41427;DHT22;27171;51.812;19.514;2023-02-28T02:50:05;-3.60;99.90
41427;DHT22;27171;51.812;19.514;2023-02-28T02:53:09;-3.70;99.90
41427;DHT22;27171;51.812;19.514;2023-02-28T02:56:13;-3.70;99.90
41427;DHT22;27171;51.812;19.514;2023-02-28T02:59:18;-3.80;99.90
41427;DHT22;27171;51.812;19.514;2023-02-28T03:02:22;-3.80;99.90
41427;DHT22;27171;51.812;19.514;2023-02-28T03:05:27;-3.90;99.90
41427;DHT22;27171;51.812;19.514;2023-02-28T03:08:34;-4.00;99.90
41427;DHT22;27171;51.812;19.514;2023-02-28T03:11:37;-4.00;99.90
41427;DHT22;27171;51.812;19.514;2023-02-28T03:18:08;-4.10;99.90
41427;DHT22;27171;51.812;19.514;2023-02-28T03:21:17;-4.10;99.90
41427;DHT22;27171;51.812;19.514;2023-02-28T03:27:55;-4.20;99.90
41427;DHT22;27171;51.812;19.514;2023-02-28T03:31:09;-4.30;99.90
41427;DHT22;27171;51.812;19.514;2023-02-28T03:34:19;-4.30;99.90
41427;DHT22;27171;51.812;19.514;2023-02-28T03:37:24;-4.30;99.90
41427;DHT22;27171;51.812;19.514;2023-02-28T03:40:30;-4.30;99.90
41427;DHT22;27171;51.812;19.514;2023-02-28T03:43:35;-4.30;99.90
41427;DHT22;27171;51.812;19.514;2023-02-28T03:50:09;-4.40;99.90
41427;DHT22;27171;51.812;19.514;2023-02-28T03:53:25;-4.40;99.90
41427;DHT22;27171;51.812;19.514;2023-02-28T03:56:31;-4.40;99.90
41427;DHT22;27171;51.812;19.514;2023-02-28T03:59:42;-4.40;99.90
41427;DHT22;27171;51.812;19.514;2023-02-28T04:02:45;-4.50;99.90
41427;DHT22;27171;51.812;19.514;2023-02-28T04:05:54;-4.50;99.90
41427;DHT22;27171;51.812;19.514;2023-02-28T04:08:55;-4.50;99.90
41427;DHT22;27171;51.812;19.514;2023-02-28T04:11:56;-4.50;99.90
41427;DHT22;27171;51.812;19.514;2023-02-28T04:14:57;-4.60;99.90
41427;DHT22;27171;51.812;19.514;2023-02-28T04:17:58;-4.60;99.90
41427;DHT22;27171;51.812;19.514;2023-02-28T04:21:00;-4.60;99.90
41427;DHT22;27171;51.812;19.514;2023-02-28T04:24:01;-4.70;99.90
41427;DHT22;27171;51.812;19.514;2023-02-28T04:27:03;-4.70;99.90
41427;DHT22;27171;51.812;19.514;2023-02-28T04:30:04;-4.70;99.90
41427;DHT22;27171;51.812;19.514;2023-02-28T04:33:06;-4.70;99.90
41427;DHT22;27171;51.812;19.514;2023-02-28T04:36:08;-4.80;99.90
41427;DHT22;27171;51.812;19.514;2023-02-28T04:39:09;-4.70;99.90
41427;DHT22;27171;51.812;19.514;2023-02-28T04:42:11;-4.70;99.90
41427;DHT22;27171;51.812;19.514;2023-02-28T04:45:13;-4.80;99.90
41427;DHT22;27171;51.812;19.514;2023-02-28T04:48:14;-4.80;99.90
41427;DHT22;27171;51.812;19.514;2023-02-28T04:51:16;-4.80;99.90
41427;DHT22;27171;51.812;19.514;2023-02-28T04:54:18;-4.80;99.90
41427;DHT22;27171;51.812;19.514;2023-02-28T04:57:19;-4.90;99.90
41427;DHT22;27171;51.812;19.514;2023-02-28T05:00:20;-4.90;99.90
41427;DHT22;27171;51.812;19.514;2023-02-28T05:03:21;-4.90;99.90
41427;DHT22;27171;51.812;19.514;2023-02-28T05:06:24;-4.90;99.90
41427;DHT22;27171;51.812;19.514;2023-02-28T05:09:26;-4.90;99.90
41427;DHT22;27171;51.812;19.514;2023-02-28T05:12:27;-4.90;99.90
41427;DHT22;27171;51.812;19.514;2023-02-28T05:15:28;-4.90;99.90
41427;DHT22;27171;51.812;19.514;2023-02-28T05:18:29;-4.90;99.90
41427;DHT22;27171;51.812;19.514;2023-02-28T05:21:33;-4.90;99.90
41427;DHT22;27171;51.812;19.514;2023-02-28T05:24:34;-4.90;99.90
41427;DHT22;27171;51.812;19.514;2023-02-28T05:27:35;-4.90;99.90
41427;DHT22;27171;51.812;19.514;2023-02-28T05:30:36;-4.90;99.90
41427;DHT22;27171;51.812;19.514;2023-02-28T05:33:37;-4.80;99.90
41427;DHT22;27171;51.812;19.514;2023-02-28T05:36:39;-4.80;99.90
41427;DHT22;27171;51.812;19.514;2023-02-28T05:39:40;-4.80;99.90
41427;DHT22;27171;51.812;19.514;2023-02-28T05:42:41;-4.80;99.90
41427;DHT22;27171;51.812;19.514;2023-02-28T05:45:42;-4.80;99.90
41427;DHT22;27171;51.812;19.514;2023-02-28T05:48:47;-4.80;99.90
41427;DHT22;27171;51.812;19.514;2023-02-28T05:51:48;-4.70;99.90
41427;DHT22;27171;51.812;19.514;2023-02-28T05:54:49;-4.70;99.90
41427;DHT22;27171;51.812;19.514;2023-02-28T05:57:50;-4.70;99.90
41427;DHT22;27171;51.812;19.514;2023-02-28T06:00:51;-4.70;99.90
41427;DHT22;27171;51.812;19.514;2023-02-28T06:03:52;-4.60;99.90
41427;DHT22;27171;51.812;19.514;2023-02-28T06:06:53;-4.60;99.90
41427;DHT22;27171;51.812;19.514;2023-02-28T06:09:54;-4.50;99.90
41427;DHT22;27171;51.812;19.514;2023-02-28T06:12:55;-4.50;99.90
41427;DHT22;27171;51.812;19.514;2023-02-28T06:16:03;-4.40;99.90
41427;DHT22;27171;51.812;19.514;2023-02-28T06:19:04;-4.40;99.90
41427;DHT22;27171;51.812;19.514;2023-02-28T06:22:05;-4.30;99.90
41427;DHT22;27171;51.812;19.514;2023-02-28T06:25:07;-4.30;99.90
41427;DHT22;27171;51.812;19.514;2023-02-28T06:28:08;-4.20;99.90
41427;DHT22;27171;51.812;19.514;2023-02-28T06:31:11;-4.20;99.90
41427;DHT22;27171;51.812;19.514;2023-02-28T06:34:13;-4.10;99.90
41427;DHT22;27171;51.812;19.514;2023-02-28T06:37:17;-4.00;99.90
41427;DHT22;27171;51.812;19.514;2023-02-28T06:40:19;-4.00;99.90
41427;DHT22;27171;51.812;19.514;2023-02-28T06:43:20;-3.90;99.90
41427;DHT22;27171;51.812;19.514;2023-02-28T06:46:21;-3.80;99.90
41427;DHT22;27171;51.812;19.514;2023-02-28T06:49:22;-3.70;99.90
41427;DHT22;27171;51.812;19.514;2023-02-28T06:52:23;-3.70;99.90
41427;DHT22;27171;51.812;19.514;2023-02-28T06:55:24;-3.60;99.90
41427;DHT22;27171;51.812;19.514;2023-02-28T06:58:25;-3.50;99.90
41427;DHT22;27171;51.812;19.514;2023-02-28T07:01:26;-3.40;99.90
41427;DHT22;27171;51.812;19.514;2023-02-28T07:04:28;-3.20;99.90
41427;DHT22;27171;51.812;19.514;2023-02-28T07:07:29;-3.10;99.90
41427;DHT22;27171;51.812;19.514;2023-02-28T07:10:31;-3.00;99.90
41427;DHT22;27171;51.812;19.514;2023-02-28T07:13:32;-2.80;99.90
41427;DHT22;27171;51.812;19.514;2023-02-28T07:16:33;-2.70;99.90
41427;DHT22;27171;51.812;19.514;2023-02-28T07:19:34;-2.60;99.90
41427;DHT22;27171;51.812;19.514;2023-02-28T07:22:35;-2.50;99.90
41427;DHT22;27171;51.812;19.514;2023-02-28T07:25:36;-2.40;99.90
41427;DHT22;27171;51.812;19.514;2023-02-28T07:28:37;-2.20;99.90
41427;DHT22;27171;51.812;19.514;2023-02-28T07:31:38;-2.10;99.90
41427;DHT22;27171;51.812;19.514;2023-02-28T07:34:39;-2.00;99.90
41427;DHT22;27171;51.812;19.514;2023-02-28T07:37:41;-1.90;99.90
41427;DHT22;27171;51.812;19.514;2023-02-28T07:40:43;-1.80;99.90
41427;DHT22;27171;51.812;19.514;2023-02-28T07:43:43;-1.60;99.90
41427;DHT22;27171;51.812;19.514;2023-02-28T07:46:44;-1.50;99.90
41427;DHT22;27171;51.812;19.514;2023-02-28T07:49:45;-1.40;99.90
41427;DHT22;27171;51.812;19.514;2023-02-28T07:52:47;-1.30;99.90
41427;DHT22;27171;51.812;19.514;2023-02-28T07:55:47;-1.30;99.90
41427;DHT22;27171;51.812;19.514;2023-02-28T07:58:49;-1.10;99.90
41427;DHT22;27171;51.812;19.514;2023-02-28T08:01:50;-1.00;99.90
41427;DHT22;27171;51.812;19.514;2023-02-28T08:04:51;-1.00;99.90
41427;DHT22;27171;51.812;19.514;2023-02-28T08:07:52;-0.90;99.90
41427;DHT22;27171;51.812;19.514;2023-02-28T08:10:53;-0.90;99.90
41427;DHT22;27171;51.812;19.514;2023-02-28T08:13:54;-0.80;99.90
41427;DHT22;27171;51.812;19.514;2023-02-28T08:16:56;-0.70;99.90
41427;DHT22;27171;51.812;19.514;2023-02-28T08:19:57;-0.60;99.90
41427;DHT22;27171;51.812;19.514;2023-02-28T08:22:58;-0.50;99.90
41427;DHT22;27171;51.812;19.514;2023-02-28T08:25:59;-0.40;99.90
41427;DHT22;27171;51.812;19.514;2023-02-28T08:29:02;-0.40;99.90
41427;DHT22;27171;51.812;19.514;2023-02-28T08:32:05;-0.40;99.90
41427;DHT22;27171;51.812;19.514;2023-02-28T08:35:07;-0.30;99.90
41427;DHT22;27171;51.812;19.514;2023-02-28T08:38:08;-0.30;99.90
41427;DHT22;27171;51.812;19.514;2023-02-28T08:41:11;-0.20;99.90
41427;DHT22;27171;51.812;19.514;2023-02-28T08:44:13;-0.10;99.90
41427;DHT22;27171;51.812;19.514;2023-02-28T08:47:14;-0.10;99.90
41427;DHT22;27171;51.812;19.514;2023-02-28T08:50:15;0.00;99.90
41427;DHT22;27171;51.812;19.514;2023-02-28T08:53:16;0.10;99.90
41427;DHT22;27171;51.812;19.514;2023-02-28T08:56:17;0.10;99.90
41427;DHT22;27171;51.812;19.514;2023-02-28T08:59:18;0.20;99.90
41427;DHT22;27171;51.812;19.514;2023-02-28T09:02:19;0.30;99.90
41427;DHT22;27171;51.812;19.514;2023-02-28T09:05:20;0.30;99.90
41427;DHT22;27171;51.812;19.514;2023-02-28T09:08:21;0.30;99.90
41427;DHT22;27171;51.812;19.514;2023-02-28T09:11:22;0.40;99.90
41427;DHT22;27171;51.812;19.514;2023-02-28T09:14:23;0.50;99.90
41427;DHT22;27171;51.812;19.514;2023-02-28T09:17:24;0.50;99.90
41427;DHT22;27171;51.812;19.514;2023-02-28T09:20:25;0.50;99.90
41427;DHT22;27171;51.812;19.514;2023-02-28T09:23:26;0.60;99.90
41427;DHT22;27171;51.812;19.514;2023-02-28T09:26:28;0.60;99.90
41427;DHT22;27171;51.812;19.514;2023-02-28T09:29:29;0.60;99.90
41427;DHT22;27171;51.812;19.514;2023-02-28T09:32:31;0.70;99.90
41427;DHT22;27171;51.812;19.514;2023-02-28T09:35:32;0.70;99.90
41427;DHT22;27171;51.812;19.514;2023-02-28T09:38:33;0.80;99.90
41427;DHT22;27171;51.812;19.514;2023-02-28T09:41:43;0.80;99.90
41427;DHT22;27171;51.812;19.514;2023-02-28T09:44:46;0.90;99.90
41427;DHT22;27171;51.812;19.514;2023-02-28T09:47:48;0.90;99.90
41427;DHT22;27171;51.812;19.514;2023-02-28T09:50:55;0.90;99.90
41427;DHT22;27171;51.812;19.514;2023-02-28T09:53:56;0.90;99.90
41427;DHT22;27171;51.812;19.514;2023-02-28T10:00:19;1.00;99.90
41427;DHT22;27171;51.812;19.514;2023-02-28T10:10:32;1.10;99.90
41427;DHT22;27171;51.812;19.514;2023-02-28T10:13:36;1.20;99.90
41427;DHT22;27171;51.812;19.514;2023-02-28T10:26:14;1.20;99.90
41427;DHT22;27171;51.812;19.514;2023-02-28T10:29:15;1.20;99.90
41427;DHT22;27171;51.812;19.514;2023-02-28T10:32:17;1.20;99.90
41427;DHT22;27171;51.812;19.514;2023-02-28T10:35:24;1.20;99.90
41427;DHT22;27171;51.812;19.514;2023-02-28T10:38:35;1.20;99.90
41427;DHT22;27171;51.812;19.514;2023-02-28T10:41:42;1.30;99.90
41427;DHT22;27171;51.812;19.514;2023-02-28T10:44:43;1.30;99.90
41427;DHT22;27171;51.812;19.514;2023-02-28T10:53:38;1.30;99.90
41427;DHT22;27171;51.812;19.514;2023-02-28T10:56:40;1.30;99.90
41427;DHT22;27171;51.812;19.514;2023-02-28T10:59:41;1.30;99.90
41427;DHT22;27171;51.812;19.514;2023-02-28T11:02:42;1.40;99.90
41427;DHT22;27171;51.812;19.514;2023-02-28T11:05:43;1.40;99.90
41427;DHT22;27171;51.812;19.514;2023-02-28T11:08:57;1.50;99.90
41427;DHT22;27171;51.812;19.514;2023-02-28T11:11:59;1.50;99.90
41427;DHT22;27171;51.812;19.514;2023-02-28T11:15:04;1.50;99.90
41427;DHT22;27171;51.812;19.514;2023-02-28T11:18:22;1.60;99.90
41427;DHT22;27171;51.812;19.514;2023-02-28T11:21:32;1.60;99.90
41427;DHT22;27171;51.812;19.514;2023-02-28T11:24:37;1.70;99.90
41427;DHT22;27171;51.812;19.514;2023-02-28T11:27:51;1.70;99.90
41427;DHT22;27171;51.812;19.514;2023-02-28T11:31:03;1.70;99.90
41427;DHT22;27171;51.812;19.514;2023-02-28T11:34:24;1.70;99.90
41427;DHT22;27171;51.812;19.514;2023-02-28T11:37:27;1.60;99.90
41427;DHT22;27171;51.812;19.514;2023-02-28T11:46:37;1.60;99.60
41427;DHT22;27171;51.812;19.514;2023-02-28T11:56:39;1.60;99.90
41427;DHT22;27171;51.812;19.514;2023-02-28T12:03:04;1.80;99.90
41427;DHT22;27171;51.812;19.514;2023-02-28T12:06:20;1.80;99.90
41427;DHT22;27171;51.812;19.514;2023-02-28T12:28:51;2.10;98.80
41427;DHT22;27171;51.812;19.514;2023-02-28T12:31:59;2.20;99.50
41427;DHT22;27171;51.812;19.514;2023-02-28T12:35:25;2.30;99.90
41427;DHT22;27171;51.812;19.514;2023-02-28T12:38:40;2.50;98.20
41427;DHT22;27171;51.812;19.514;2023-02-28T12:44:58;2.60;95.30
41427;DHT22;27171;51.812;19.514;2023-02-28T12:48:02;2.70;97.80
41427;DHT22;27171;51.812;19.514;2023-02-28T12:51:06;2.80;98.50
41427;DHT22;27171;51.812;19.514;2023-02-28T12:54:25;2.80;98.70
41427;DHT22;27171;51.812;19.514;2023-02-28T12:57:42;3.00;98.80
41427;DHT22;27171;51.812;19.514;2023-02-28T13:10:45;3.50;97.60
41427;DHT22;27171;51.812;19.514;2023-02-28T13:13:47;3.50;97.60
41427;DHT22;27171;51.812;19.514;2023-02-28T13:17:09;3.60;97.70
41427;DHT22;27171;51.812;19.514;2023-02-28T13:20:21;3.60;97.20
41427;DHT22;27171;51.812;19.514;2023-02-28T13:23:39;3.70;97.30
41427;DHT22;27171;51.812;19.514;2023-02-28T13:29:42;3.80;97.30
41427;DHT22;27171;51.812;19.514;2023-02-28T13:32:44;3.90;95.50
41427;DHT22;27171;51.812;19.514;2023-02-28T13:35:46;4.00;97.00
41427;DHT22;27171;51.812;19.514;2023-02-28T13:38:58;4.00;96.60
41427;DHT22;27171;51.812;19.514;2023-02-28T13:45:28;4.10;96.00
41427;DHT22;27171;51.812;19.514;2023-02-28T13:48:29;4.10;96.10
41427;DHT22;27171;51.812;19.514;2023-02-28T13:51:41;4.10;96.10
41427;DHT22;27171;51.812;19.514;2023-02-28T14:01:36;4.20;94.20
41427;DHT22;27171;51.812;19.514;2023-02-28T14:04:49;4.20;94.80
41427;DHT22;27171;51.812;19.514;2023-02-28T14:07:56;4.20;95.00
41427;DHT22;27171;51.812;19.514;2023-02-28T14:11:06;4.20;94.80
41427;DHT22;27171;51.812;19.514;2023-02-28T14:17:37;4.10;93.70
41427;DHT22;27171;51.812;19.514;2023-02-28T14:20:40;4.00;94.20
41427;DHT22;27171;51.812;19.514;2023-02-28T14:30:51;3.90;94.80
41427;DHT22;27171;51.812;19.514;2023-02-28T14:36:58;3.80;93.60
41427;DHT22;27171;51.812;19.514;2023-02-28T14:40:02;3.70;95.00
41427;DHT22;27171;51.812;19.514;2023-02-28T14:43:06;3.70;95.00
41427;DHT22;27171;51.812;19.514;2023-02-28T14:46:22;3.70;95.00
41427;DHT22;27171;51.812;19.514;2023-02-28T14:49:36;3.60;95.20
41427;DHT22;27171;51.812;19.514;2023-02-28T14:52:37;3.60;95.50
41427;DHT22;27171;51.812;19.514;2023-02-28T14:55:44;3.60;95.70
41427;DHT22;27171;51.812;19.514;2023-02-28T14:58:52;3.60;95.70
41427;DHT22;27171;51.812;19.514;2023-02-28T15:02:17;3.60;95.30
41427;DHT22;27171;51.812;19.514;2023-02-28T15:08:26;3.50;95.50
41427;DHT22;27171;51.812;19.514;2023-02-28T15:11:27;3.40;96.00
41427;DHT22;27171;51.812;19.514;2023-02-28T15:14:30;3.40;96.10
41427;DHT22;27171;51.812;19.514;2023-02-28T15:17:32;3.40;96.70
41427;DHT22;27171;51.812;19.514;2023-02-28T15:20:33;3.40;96.50
41427;DHT22;27171;51.812;19.514;2023-02-28T15:23:36;3.30;96.50
41427;DHT22;27171;51.812;19.514;2023-02-28T15:26:40;3.20;96.30
41427;DHT22;27171;51.812;19.514;2023-02-28T15:29:46;3.10;96.50
41427;DHT22;27171;51.812;19.514;2023-02-28T15:36:17;3.00;96.90
41427;DHT22;27171;51.812;19.514;2023-02-28T15:39:22;2.90;97.20
41427;DHT22;27171;51.812;19.514;2023-02-28T15:42:28;2.80;97.60
41427;DHT22;27171;51.812;19.514;2023-02-28T15:45:36;2.70;97.90
41427;DHT22;27171;51.812;19.514;2023-02-28T15:48:44;2.60;98.20
41427;DHT22;27171;51.812;19.514;2023-02-28T15:51:45;2.50;98.60
41427;DHT22;27171;51.812;19.514;2023-02-28T15:54:47;2.40;98.90
41427;DHT22;27171;51.812;19.514;2023-02-28T15:58:00;2.30;99.30
41427;DHT22;27171;51.812;19.514;2023-02-28T16:01:07;2.20;99.50
41427;DHT22;27171;51.812;19.514;2023-02-28T16:04:17;2.10;99.90
41427;DHT22;27171;51.812;19.514;2023-02-28T16:07:19;2.00;99.90
41427;DHT22;27171;51.812;19.514;2023-02-28T16:10:20;1.90;99.90
41427;DHT22;27171;51.812;19.514;2023-02-28T16:13:22;1.80;99.90
41427;DHT22;27171;51.812;19.514;2023-02-28T16:16:23;1.60;99.90
41427;DHT22;27171;51.812;19.514;2023-02-28T16:19:25;1.50;99.90
41427;DHT22;27171;51.812;19.514;2023-02-28T16:22:26;1.40;99.90
41427;DHT22;27171;51.812;19.514;2023-02-28T16:25:34;1.30;99.90
41427;DHT22;27171;51.812;19.514;2023-02-28T16:28:37;1.20;99.90
41427;DHT22;27171;51.812;19.514;2023-02-28T16:31:39;1.10;99.90
41427;DHT22;27171;51.812;19.514;2023-02-28T16:34:39;1.00;99.90
41427;DHT22;27171;51.812;19.514;2023-02-28T16:37:41;0.90;99.90
41427;DHT22;27171;51.812;19.514;2023-02-28T16:40:42;0.80;99.90
41427;DHT22;27171;51.812;19.514;2023-02-28T16:43:45;0.60;99.90
41427;DHT22;27171;51.812;19.514;2023-02-28T16:46:46;0.50;99.90
41427;DHT22;27171;51.812;19.514;2023-02-28T16:49:47;0.50;99.90
41427;DHT22;27171;51.812;19.514;2023-02-28T16:52:49;0.40;99.90
41427;DHT22;27171;51.812;19.514;2023-02-28T16:55:50;0.30;99.90
41427;DHT22;27171;51.812;19.514;2023-02-28T16:58:51;0.20;99.90
41427;DHT22;27171;51.812;19.514;2023-02-28T17:01:52;0.20;99.90
41427;DHT22;27171;51.812;19.514;2023-02-28T17:04:56;0.10;99.90
41427;DHT22;27171;51.812;19.514;2023-02-28T17:07:57;0.00;99.90
41427;DHT22;27171;51.812;19.514;2023-02-28T17:10:59;0.00;99.90
41427;DHT22;27171;51.812;19.514;2023-02-28T17:14:00;-0.10;99.90
41427;DHT22;27171;51.812;19.514;2023-02-28T17:17:01;-0.10;99.90
41427;DHT22;27171;51.812;19.514;2023-02-28T17:20:02;-0.20;99.90
41427;DHT22;27171;51.812;19.514;2023-02-28T17:23:04;-0.20;99.90
41427;DHT22;27171;51.812;19.514;2023-02-28T17:26:05;-0.30;99.90
41427;DHT22;27171;51.812;19.514;2023-02-28T17:29:20;-0.40;99.90
41427;DHT22;27171;51.812;19.514;2023-02-28T17:32:22;-0.40;99.90
41427;DHT22;27171;51.812;19.514;2023-02-28T17:35:23;-0.50;99.90
41427;DHT22;27171;51.812;19.514;2023-02-28T17:38:24;-0.60;99.90
41427;DHT22;27171;51.812;19.514;2023-02-28T17:41:25;-0.60;99.90
41427;DHT22;27171;51.812;19.514;2023-02-28T17:44:26;-0.70;99.90
41427;DHT22;27171;51.812;19.514;2023-02-28T17:47:27;-0.70;99.90
41427;DHT22;27171;51.812;19.514;2023-02-28T17:50:28;-0.80;99.90
41427;DHT22;27171;51.812;19.514;2023-02-28T17:53:30;-0.90;99.90
41427;DHT22;27171;51.812;19.514;2023-02-28T17:56:30;-0.90;99.90
41427;DHT22;27171;51.812;19.514;2023-02-28T17:59:32;-1.00;99.90
41427;DHT22;27171;51.812;19.514;2023-02-28T18:02:33;-1.00;99.90
41427;DHT22;27171;51.812;19.514;2023-02-28T18:05:35;-1.10;99.90
41427;DHT22;27171;51.812;19.514;2023-02-28T18:08:36;-1.10;99.90
41427;DHT22;27171;51.812;19.514;2023-02-28T18:11:38;-1.20;99.90
41427;DHT22;27171;51.812;19.514;2023-02-28T18:14:39;-1.20;99.90
41427;DHT22;27171;51.812;19.514;2023-02-28T18:17:41;-1.30;99.90
41427;DHT22;27171;51.812;19.514;2023-02-28T18:20:42;-1.30;99.90
41427;DHT22;27171;51.812;19.514;2023-02-28T18:23:44;-1.40;99.90
41427;DHT22;27171;51.812;19.514;2023-02-28T18:26:45;-1.50;99.90
41427;DHT22;27171;51.812;19.514;2023-02-28T18:29:46;-1.50;99.90
41427;DHT22;27171;51.812;19.514;2023-02-28T18:32:47;-1.60;99.90
41427;DHT22;27171;51.812;19.514;2023-02-28T18:35:55;-1.60;99.90
41427;DHT22;27171;51.812;19.514;2023-02-28T18:38:56;-1.60;99.90
41427;DHT22;27171;51.812;19.514;2023-02-28T18:41:57;-1.70;99.90
41427;DHT22;27171;51.812;19.514;2023-02-28T18:45:00;-1.70;99.90
41427;DHT22;27171;51.812;19.514;2023-02-28T18:48:04;-1.80;99.90
41427;DHT22;27171;51.812;19.514;2023-02-28T18:51:14;-1.80;99.90
41427;DHT22;27171;51.812;19.514;2023-02-28T18:54:16;-1.90;99.90
41427;DHT22;27171;51.812;19.514;2023-02-28T18:57:17;-1.90;99.90
41427;DHT22;27171;51.812;19.514;2023-02-28T19:00:18;-1.90;99.90
41427;DHT22;27171;51.812;19.514;2023-02-28T19:03:20;-2.00;99.90
41427;DHT22;27171;51.812;19.514;2023-02-28T19:06:21;-2.00;99.90
41427;DHT22;27171;51.812;19.514;2023-02-28T19:09:22;-2.10;99.90
41427;DHT22;27171;51.812;19.514;2023-02-28T19:12:23;-2.10;99.90
41427;DHT22;27171;51.812;19.514;2023-02-28T19:15:24;-2.20;99.90
41427;DHT22;27171;51.812;19.514;2023-02-28T19:18:26;-2.20;99.90
41427;DHT22;27171;51.812;19.514;2023-02-28T19:21:27;-2.30;99.90
41427;DHT22;27171;51.812;19.514;2023-02-28T19:24:28;-2.30;99.90
41427;DHT22;27171;51.812;19.514;2023-02-28T19:27:29;-2.40;99.90
41427;DHT22;27171;51.812;19.514;2023-02-28T19:30:32;-2.40;99.90
41427;DHT22;27171;51.812;19.514;2023-02-28T19:33:33;-2.40;99.90
41427;DHT22;27171;51.812;19.514;2023-02-28T19:36:34;-2.50;99.90
41427;DHT22;27171;51.812;19.514;2023-02-28T19:39:36;-2.50;99.90
41427;DHT22;27171;51.812;19.514;2023-02-28T19:42:38;-2.60;99.90
41427;DHT22;27171;51.812;19.514;2023-02-28T19:45:39;-2.60;99.90
41427;DHT22;27171;51.812;19.514;2023-02-28T19:48:40;-2.60;99.90
41427;DHT22;27171;51.812;19.514;2023-02-28T19:51:42;-2.70;99.90
41427;DHT22;27171;51.812;19.514;2023-02-28T19:54:43;-2.70;99.90
41427;DHT22;27171;51.812;19.514;2023-02-28T19:57:46;-2.80;99.90
41427;DHT22;27171;51.812;19.514;2023-02-28T20:00:48;-2.80;99.90
41427;DHT22;27171;51.812;19.514;2023-02-28T20:03:49;-2.90;99.90
41427;DHT22;27171;51.812;19.514;2023-02-28T20:06:51;-2.90;99.90
41427;DHT22;27171;51.812;19.514;2023-02-28T20:09:52;-3.00;99.90
41427;DHT22;27171;51.812;19.514;2023-02-28T20:12:53;-3.00;99.90
41427;DHT22;27171;51.812;19.514;2023-02-28T20:15:58;-3.10;99.90
41427;DHT22;27171;51.812;19.514;2023-02-28T20:18:59;-3.10;99.90
41427;DHT22;27171;51.812;19.514;2023-02-28T20:22:03;-3.10;99.90
41427;DHT22;27171;51.812;19.514;2023-02-28T20:25:05;-3.10;99.90
41427;DHT22;27171;51.812;19.514;2023-02-28T20:28:07;-3.10;99.90
41427;DHT22;27171;51.812;19.514;2023-02-28T20:31:17;-3.20;99.90
41427;DHT22;27171;51.812;19.514;2023-02-28T20:34:18;-3.20;99.90
41427;DHT22;27171;51.812;19.514;2023-02-28T20:37:20;-3.30;99.90
41427;DHT22;27171;51.812;19.514;2023-02-28T20:40:21;-3.30;99.90
41427;DHT22;27171;51.812;19.514;2023-02-28T20:43:22;-3.30;99.90
41427;DHT22;27171;51.812;19.514;2023-02-28T20:46:26;-3.30;99.90
41427;DHT22;27171;51.812;19.514;2023-02-28T20:49:28;-3.30;99.90
41427;DHT22;27171;51.812;19.514;2023-02-28T20:52:29;-3.40;99.90
41427;DHT22;27171;51.812;19.514;2023-02-28T20:55:31;-3.40;99.90
41427;DHT22;27171;51.812;19.514;2023-02-28T20:58:34;-3.40;99.90
41427;DHT22;27171;51.812;19.514;2023-02-28T21:01:35;-3.40;99.90
41427;DHT22;27171;51.812;19.514;2023-02-28T21:04:36;-3.40;99.90
41427;DHT22;27171;51.812;19.514;2023-02-28T21:07:37;-3.50;99.90
41427;DHT22;27171;51.812;19.514;2023-02-28T21:10:38;-3.50;99.90
41427;DHT22;27171;51.812;19.514;2023-02-28T21:13:41;-3.60;99.90
41427;DHT22;27171;51.812;19.514;2023-02-28T21:16:43;-3.60;99.90
41427;DHT22;27171;51.812;19.514;2023-02-28T21:19:46;-3.60;99.90
41427;DHT22;27171;51.812;19.514;2023-02-28T21:22:48;-3.60;99.90
41427;DHT22;27171;51.812;19.514;2023-02-28T21:25:49;-3.60;99.90
41427;DHT22;27171;51.812;19.514;2023-02-28T21:28:55;-3.70;99.90
41427;DHT22;27171;51.812;19.514;2023-02-28T21:31:56;-3.70;99.90